Time;durP1;ratioP1;P1;durP2;ratioP2;P2;SDS_P1;SDS_P2;PMS_P1;PMS_P2;Temp;Humidity;BMP_temperature;BMP_pressure;BME280_temperature;BME280_humidity;BME280_pressure;Samples;Min_cycle;Max_cycle;Signal;HPM_P1;HPM_P2
2023/06/26 00:01:14;;;;;;;4.35;2.15;;;;;;;24.66;53.42;101276.50;4993961;28;100773;-27
2023/06/26 00:03:40;;;;;;;3.83;2.47;;;;;;;24.58;52.19;101277.38;4995639;28;97785;-27
2023/06/26 00:06:05;;;;;;;4.47;2.35;;;;;;;24.54;52.64;101284.28;4995510;28;96551;-27
2023/06/26 00:08:31;;;;;;;4.32;2.40;;;;;;;24.52;53.20;101278.06;4995400;28;96568;-26
2023/06/26 00:10:56;;;;;;;3.92;1.88;;;;;;;24.47;53.78;101277.72;4994411;28;99839;-27
2023/06/26 00:13:24;;;;;;;3.55;1.98;;;;;;;24.41;53.60;101277.53;4994842;28;98806;-27
2023/06/26 00:15:50;;;;;;;4.63;2.10;;;;;;;24.36;53.51;101289.16;4993693;28;96857;-26
2023/06/26 00:18:15;;;;;;;4.75;2.00;;;;;;;24.26;54.48;101292.06;4993794;28;96872;-27
2023/06/26 00:20:41;;;;;;;6.13;2.05;;;;;;;24.27;54.12;101301.28;4994851;28;99318;-27
2023/06/26 00:23:07;;;;;;;6.25;2.10;;;;;;;24.23;53.71;101325.66;4994884;28;97272;-27
2023/06/26 00:25:33;;;;;;;3.80;1.95;;;;;;;24.01;54.71;101304.19;4993642;28;96693;-27
2023/06/26 00:27:59;;;;;;;6.32;1.85;;;;;;;23.92;54.87;101306.06;4993993;28;96839;-26
2023/06/26 00:30:24;;;;;;;3.05;1.75;;;;;;;23.90;55.60;101321.97;4995081;28;97362;-26
2023/06/26 00:32:50;;;;;;;5.72;1.92;;;;;;;23.79;56.14;101312.13;4994610;28;99249;-26
2023/06/26 00:35:16;;;;;;;7.10;1.95;;;;;;;23.74;55.56;101320.94;4993462;28;96431;-27
2023/06/26 00:37:41;;;;;;;3.55;1.80;;;;;;;23.77;55.59;101314.19;4994906;28;96827;-26
2023/06/26 00:40:07;;;;;;;3.70;1.80;;;;;;;23.68;56.61;101310.50;4994869;28;97389;-27
2023/06/26 00:42:33;;;;;;;3.25;1.63;;;;;;;23.61;56.64;101322.41;4993169;28;102511;-27
2023/06/26 00:44:58;;;;;;;3.40;1.85;;;;;;;23.58;56.13;101311.69;4994911;28;96721;-26
2023/06/26 00:47:24;;;;;;;2.25;1.23;;;;;;;23.60;56.24;101326.22;4994594;28;96831;-27
2023/06/26 00:49:49;;;;;;;3.10;1.83;;;;;;;23.53;56.82;101314.94;4994346;28;98881;-27
2023/06/26 00:52:16;;;;;;;5.45;1.35;;;;;;;23.51;56.75;101320.63;4994337;28;99091;-27
2023/06/26 00:54:42;;;;;;;6.28;1.88;;;;;;;23.51;56.38;101311.47;4993273;28;97186;-26
2023/06/26 00:57:07;;;;;;;3.90;1.48;;;;;;;23.52;56.50;101319.59;4993944;28;96771;-28
2023/06/26 00:59:33;;;;;;;2.75;1.27;;;;;;;23.45;57.60;101317.66;4993773;28;99696;-27
2023/06/26 01:01:59;;;;;;;8.75;2.28;;;;;;;23.41;56.95;101330.13;4994414;28;97816;-27
2023/06/26 01:04:27;;;;;;;5.35;1.98;;;;;;;23.39;57.18;101324.75;4993028;28;96650;-27
2023/06/26 01:06:54;;;;;;;4.97;1.70;;;;;;;23.20;57.98;101308.44;4992872;28;96821;-27
2023/06/26 01:09:22;;;;;;;5.75;1.65;;;;;;;23.17;57.81;101320.69;4992851;28;101338;-26
2023/06/26 01:11:48;;;;;;;4.68;1.48;;;;;;;23.10;60.04;101319.63;4992710;28;100803;-26
2023/06/26 01:14:13;;;;;;;3.25;1.45;;;;;;;23.11;58.43;101327.72;4994056;28;96605;-26
2023/06/26 01:16:40;;;;;;;5.43;1.65;;;;;;;23.10;57.93;101330.66;4995149;28;96808;-27
2023/06/26 01:19:10;;;;;;;5.20;1.95;;;;;;;23.12;58.43;101334.13;4992616;28;100961;-29
2023/06/26 01:21:42;;;;;;;4.07;1.77;;;;;;;23.04;59.56;101317.50;4992668;28;99829;-27
2023/06/26 01:24:21;;;;;;;6.78;2.28;;;;;;;23.07;59.92;101322.69;4992296;28;96904;-27
2023/06/26 01:26:50;;;;;;;7.28;2.00;;;;;;;23.07;59.48;101315.28;4994421;28;96501;-28
2023/06/26 01:29:17;;;;;;;5.93;1.80;;;;;;;23.09;58.67;101309.56;4992381;28;101246;-28
2023/06/26 01:31:46;;;;;;;4.32;2.00;;;;;;;23.08;59.58;101324.44;4993724;28;97267;-27
2023/06/26 01:34:12;;;;;;;5.03;2.20;;;;;;;22.99;58.89;101325.41;4993407;28;98433;-26
2023/06/26 01:36:38;;;;;;;5.45;1.80;;;;;;;23.07;59.94;101314.41;4993742;28;96818;-27
2023/06/26 01:39:03;;;;;;;6.07;1.52;;;;;;;23.08;59.83;101317.00;4992322;28;101101;-27
2023/06/26 01:41:29;;;;;;;3.35;1.67;;;;;;;22.89;59.09;101318.06;4994110;28;97784;-27
2023/06/26 01:44:17;;;;;;;3.85;1.90;;;;;;;22.93;59.73;101318.63;4994019;28;96579;-26
2023/06/26 01:47:04;;;;;;;6.88;1.55;;;;;;;22.78;59.77;101315.59;4992734;28;96659;-27
2023/06/26 01:49:45;;;;;;;6.75;1.80;;;;;;;22.82;60.52;101330.81;4991715;28;101031;-27
2023/06/26 01:52:29;;;;;;;;;;;;;;;22.83;60.91;101337.19;4992712;28;100786;-27
2023/06/26 01:55:22;;;;;;;6.88;2.13;;;;;;;22.79;60.05;101333.03;4993717;28;96579;-27
2023/06/26 01:57:52;;;;;;;5.55;1.77;;;;;;;22.73;60.26;101330.91;4994092;28;96503;-27
2023/06/26 02:00:19;;;;;;;7.75;2.00;;;;;;;22.69;60.31;101339.53;4975955;28;99065;-27
2023/06/26 02:02:44;;;;;;;5.47;2.30;;;;;;;22.70;60.39;101323.81;4991995;28;100728;-27
2023/06/26 02:05:11;;;;;;;6.30;2.22;;;;;;;22.69;60.57;101339.53;4993186;28;96690;-27
2023/06/26 02:07:36;;;;;;;7.90;2.00;;;;;;;22.69;60.02;101338.66;4992409;28;96616;-27
2023/06/26 02:10:03;;;;;;;4.70;1.88;;;;;;;22.66;60.41;101327.94;4993377;28;97963;-26
2023/06/26 02:12:28;;;;;;;3.53;1.90;;;;;;;22.64;60.69;101327.22;4991711;28;102450;-27
2023/06/26 02:14:53;;;;;;;8.25;2.00;;;;;;;22.66;60.95;101341.75;4993097;28;96606;-27
2023/06/26 02:17:19;;;;;;;3.92;1.92;;;;;;;22.55;61.44;101333.72;4993010;28;103322;-27
2023/06/26 02:19:47;;;;;;;3.13;1.67;;;;;;;22.50;61.47;101336.09;4992961;28;98129;-28
2023/06/26 02:22:14;;;;;;;5.68;1.90;;;;;;;22.57;61.36;101345.47;4991624;28;100751;-27
2023/06/26 02:24:40;;;;;;;5.78;1.95;;;;;;;22.58;61.06;101347.22;4991681;28;96719;-27
2023/06/26 02:27:05;;;;;;;6.22;2.10;;;;;;;22.47;60.73;101340.91;4993313;28;96781;-28
2023/06/26 02:29:30;;;;;;;7.93;1.85;;;;;;;22.40;61.01;101339.81;4993150;28;97931;-26
2023/06/26 02:31:56;;;;;;;6.10;2.13;;;;;;;22.40;61.24;101342.56;4993334;28;97936;-27
2023/06/26 02:34:21;;;;;;;6.53;1.73;;;;;;;22.37;60.76;101340.13;4992449;28;96752;-27
2023/06/26 02:36:46;;;;;;;5.75;1.52;;;;;;;22.32;60.37;101356.31;4992202;28;108865;-27
2023/06/26 02:39:12;;;;;;;5.60;1.70;;;;;;;22.26;61.45;101335.75;4992638;28;97461;-27
2023/06/26 02:41:37;;;;;;;8.00;2.10;;;;;;;22.26;60.86;101348.66;4992614;28;99315;-27
2023/06/26 02:44:03;;;;;;;5.22;1.98;;;;;;;22.23;61.30;101344.31;4993462;28;96459;-27
2023/06/26 02:46:28;;;;;;;4.35;1.63;;;;;;;22.25;61.00;101347.78;4993031;28;96728;-26
2023/06/26 02:48:53;;;;;;;4.47;1.63;;;;;;;22.29;61.28;101364.06;4992589;28;98071;-27
2023/06/26 02:51:19;;;;;;;8.93;1.95;;;;;;;22.23;61.82;101349.84;4992420;28;99235;-27
2023/06/26 02:53:44;;;;;;;4.47;1.60;;;;;;;22.20;60.68;101358.44;4992681;28;98387;-27
2023/06/26 02:56:09;;;;;;;5.35;1.95;;;;;;;22.24;61.43;101359.00;4993002;28;102217;-27
2023/06/26 02:58:35;;;;;;;3.25;1.65;;;;;;;22.14;61.22;101363.69;4992325;28;106360;-27
2023/06/26 03:01:00;;;;;;;5.32;1.80;;;;;;;22.12;61.44;101372.16;4992679;28;97751;-28
2023/06/26 03:03:25;;;;;;;4.70;1.88;;;;;;;22.05;62.56;101380.19;4991981;28;96761;-26
2023/06/26 03:05:51;;;;;;;3.53;1.42;;;;;;;21.97;62.47;101377.31;4992777;28;96764;-26
2023/06/26 03:08:16;;;;;;;5.75;1.75;;;;;;;21.89;61.96;101377.25;4992338;28;99942;-26
2023/06/26 03:10:41;;;;;;;6.30;2.05;;;;;;;21.79;61.98;101381.97;4992690;28;97230;-27
2023/06/26 03:13:07;;;;;;;6.38;1.83;;;;;;;21.81;62.46;101383.53;4992536;28;96685;-27
2023/06/26 03:15:32;;;;;;;4.43;1.55;;;;;;;21.76;62.25;101374.88;4992373;28;96922;-27
2023/06/26 03:17:57;;;;;;;5.65;1.58;;;;;;;21.77;62.54;101386.75;4990830;28;99285;-26
2023/06/26 03:20:23;;;;;;;9.60;2.17;;;;;;;21.82;61.63;101396.28;4992200;28;97653;-26
2023/06/26 03:22:48;;;;;;;5.55;2.13;;;;;;;21.75;62.36;101392.41;4992481;28;96464;-27
2023/06/26 03:25:14;;;;;;;4.30;1.85;;;;;;;21.78;61.54;101400.38;4992410;28;96839;-26
2023/06/26 03:27:39;;;;;;;8.27;1.65;;;;;;;21.75;62.83;101402.59;4991483;28;99300;-27
2023/06/26 03:30:05;;;;;;;6.38;2.08;;;;;;;21.63;61.88;101393.66;4992119;28;97916;-26
2023/06/26 03:32:30;;;;;;;3.45;1.63;;;;;;;21.62;63.34;101392.78;4991990;28;96477;-26
2023/06/26 03:34:56;;;;;;;3.95;1.60;;;;;;;21.61;62.02;101395.69;4991554;28;96885;-27
2023/06/26 03:37:21;;;;;;;5.07;1.80;;;;;;;21.62;62.33;101391.94;4990541;28;101456;-27
2023/06/26 03:39:47;;;;;;;4.47;1.67;;;;;;;21.66;62.11;101406.25;4990648;28;100464;-27
2023/06/26 03:42:12;;;;;;;5.40;1.67;;;;;;;21.66;62.22;101403.50;4991955;28;97002;-27
2023/06/26 03:44:37;;;;;;;4.63;1.60;;;;;;;21.64;61.20;101400.88;4992614;28;96803;-26
2023/06/26 03:47:03;;;;;;;9.65;1.95;;;;;;;21.63;61.49;101413.81;4991896;28;97897;-26
2023/06/26 03:49:28;;;;;;;8.65;1.63;;;;;;;21.67;62.00;101416.28;4991957;28;97311;-27
2023/06/26 03:51:54;;;;;;;7.50;1.85;;;;;;;21.65;62.14;101421.09;4990167;28;97021;-27
2023/06/26 03:54:19;;;;;;;8.70;1.63;;;;;;;21.60;61.42;101416.03;4991729;28;96861;-26
2023/06/26 03:56:44;;;;;;;5.40;1.77;;;;;;;21.60;61.93;101427.91;4991885;28;97902;-26
2023/06/26 03:59:10;;;;;;;7.70;1.95;;;;;;;21.58;61.97;101427.19;4991657;28;99139;-27
2023/06/26 04:01:37;;;;;;;3.95;1.52;;;;;;;21.51;61.65;101417.78;4991754;28;96521;-28
2023/06/26 04:04:02;;;;;;;5.57;1.73;;;;;;;21.45;61.33;101415.63;4990502;28;96940;-26
2023/06/26 04:06:28;;;;;;;4.18;1.55;;;;;;;21.51;61.16;101425.19;4991487;28;99343;-26
2023/06/26 04:08:53;;;;;;;5.72;1.90;;;;;;;21.55;60.66;101429.41;4991820;28;99239;-27
2023/06/26 04:11:18;;;;;;;3.92;1.50;;;;;;;21.56;60.76;101436.63;4991947;28;96588;-27
2023/06/26 04:13:44;;;;;;;4.47;1.48;;;;;;;21.52;61.05;101438.81;4991774;28;96771;-27
2023/06/26 04:16:11;;;;;;;9.13;2.03;;;;;;;21.44;61.06;101448.88;4991020;28;98735;-27
2023/06/26 04:18:37;;;;;;;4.50;1.40;;;;;;;21.52;60.76;101451.75;4990083;28;100962;-27
2023/06/26 04:21:11;;;;;;;5.45;1.77;;;;;;;21.44;60.93;101457.16;4991856;28;96504;-26
2023/06/26 04:23:37;;;;;;;3.42;1.60;;;;;;;21.42;61.17;101465.56;4991543;28;96918;-26
2023/06/26 04:26:04;;;;;;;3.25;1.50;;;;;;;21.38;60.86;101466.84;4991540;28;97444;-26
2023/06/26 04:28:34;;;;;;;3.85;1.15;;;;;;;21.39;60.86;101474.09;4991471;28;97260;-26
2023/06/26 04:31:00;;;;;;;4.20;1.63;;;;;;;21.34;61.54;101477.31;4990053;28;96725;-26
2023/06/26 04:33:26;;;;;;;3.40;1.20;;;;;;;21.32;60.78;101478.47;4993632;28;96838;-26
2023/06/26 04:35:52;;;;;;;2.75;1.20;;;;;;;21.26;60.68;101468.94;4992538;28;101100;-28
2023/06/26 04:38:19;;;;;;;3.42;1.35;;;;;;;21.27;60.96;101472.53;4994795;28;97898;-27
2023/06/26 04:40:44;;;;;;;1.95;1.08;;;;;;;21.24;61.23;101468.22;4992900;28;96995;-27
2023/06/26 04:43:10;;;;;;;2.40;1.33;;;;;;;21.28;60.85;101482.53;4994625;28;96808;-26
2023/06/26 04:45:35;;;;;;;3.42;1.35;;;;;;;21.28;61.32;101480.66;4994288;28;99383;-27
2023/06/26 04:48:01;;;;;;;4.40;1.80;;;;;;;21.26;61.03;101487.31;4994654;28;97268;-26
2023/06/26 04:50:28;;;;;;;3.97;1.20;;;;;;;21.19;60.79;101479.66;4994828;28;96754;-27
2023/06/26 04:52:54;;;;;;;3.83;1.55;;;;;;;21.21;60.94;101485.00;4993262;28;96818;-26
2023/06/26 04:55:21;;;;;;;2.65;1.30;;;;;;;21.24;60.91;101492.13;4993097;28;101079;-27
2023/06/26 04:57:47;;;;;;;3.40;1.40;;;;;;;21.25;61.75;101494.72;4993298;28;100747;-26
2023/06/26 05:00:13;;;;;;;5.43;2.10;;;;;;;21.23;61.73;101501.41;4994700;28;96730;-28
2023/06/26 05:02:38;;;;;;;3.28;1.58;;;;;;;21.21;60.90;101505.19;4993196;28;96763;-27
2023/06/26 05:05:04;;;;;;;5.07;1.80;;;;;;;21.11;62.44;101509.84;4993625;28;99545;-27
2023/06/26 05:07:29;;;;;;;3.47;1.30;;;;;;;21.11;61.97;101504.31;4994342;28;97379;-27
2023/06/26 05:09:55;;;;;;;4.30;1.15;;;;;;;21.13;61.90;101506.94;4994316;28;96580;-26
2023/06/26 05:12:20;;;;;;;3.35;1.45;;;;;;;21.14;62.27;101508.66;4994102;28;97773;-26
2023/06/26 05:14:46;;;;;;;2.78;1.40;;;;;;;21.10;62.41;101521.88;4994004;28;97606;-26
2023/06/26 05:17:14;;;;;;;3.92;1.30;;;;;;;21.09;63.03;101524.78;4994156;28;99637;-26
2023/06/26 05:19:39;;;;;;;4.05;1.30;;;;;;;21.02;62.46;101521.72;4992799;28;96625;-27
2023/06/26 05:22:07;;;;;;;2.47;1.40;;;;;;;21.05;62.99;101528.84;4994381;28;101545;-26
2023/06/26 05:24:35;;;;;;;2.03;1.15;;;;;;;21.07;63.04;101527.69;4992560;28;100744;-27
2023/06/26 05:27:01;;;;;;;2.95;1.27;;;;;;;21.08;63.09;101540.44;4992562;28;100749;-27
2023/06/26 05:29:27;;;;;;;1.88;1.00;;;;;;;21.14;62.92;101544.47;4993571;28;96610;-27
2023/06/26 05:31:55;;;;;;;2.35;1.50;;;;;;;21.07;63.17;101529.56;4992582;28;96959;-26
2023/06/26 05:34:22;;;;;;;2.30;1.02;;;;;;;21.13;63.48;101543.63;4991977;28;101337;-27
2023/06/26 05:36:51;;;;;;;3.78;1.48;;;;;;;21.08;63.22;101542.34;4992035;28;101062;-27
2023/06/26 05:39:17;;;;;;;4.45;1.38;;;;;;;21.15;63.09;101547.09;4992409;28;97664;-27
2023/06/26 05:41:44;;;;;;;4.72;1.48;;;;;;;21.19;61.98;101559.56;4992238;28;96927;-26
2023/06/26 05:44:10;;;;;;;2.35;1.30;;;;;;;21.16;61.51;101565.34;4992165;28;102108;-27
2023/06/26 05:46:35;;;;;;;4.15;0.75;;;;;;;21.18;60.82;101566.09;4994066;28;97850;-27
2023/06/26 05:49:01;;;;;;;1.77;0.88;;;;;;;21.27;60.32;101582.78;4993732;28;96515;-26
2023/06/26 05:51:27;;;;;;;6.40;0.93;;;;;;;21.20;59.55;101585.25;4992275;28;96850;-26
2023/06/26 05:53:53;;;;;;;1.48;0.77;;;;;;;21.16;59.93;101592.06;4991477;28;102271;-26
2023/06/26 05:56:19;;;;;;;3.45;0.90;;;;;;;21.15;59.74;101596.69;4993523;28;98782;-27
2023/06/26 05:58:45;;;;;;;1.80;0.65;;;;;;;21.12;59.49;101597.00;4993612;28;96642;-27
2023/06/26 06:01:11;;;;;;;1.75;0.60;;;;;;;21.23;59.40;101593.22;4992333;28;96734;-27
2023/06/26 06:03:36;;;;;;;1.27;0.50;;;;;;;21.16;58.63;101584.66;4993466;28;97942;-27
2023/06/26 06:06:01;;;;;;;3.03;0.68;;;;;;;21.14;58.91;101586.72;4993465;28;97753;-27
2023/06/26 06:08:27;;;;;;;2.28;0.40;;;;;;;21.24;57.92;101594.97;5005456;28;96868;-26
2023/06/26 06:10:52;;;;;;;3.42;0.80;;;;;;;21.28;57.80;101604.66;5007783;28;100773;-27
2023/06/26 06:13:18;;;;;;;1.15;0.43;;;;;;;21.31;57.57;101596.13;5002343;28;98931;-27
2023/06/26 06:15:43;;;;;;;1.42;0.65;;;;;;;21.42;57.22;101601.50;4995969;28;97285;-27
2023/06/26 06:18:08;;;;;;;2.10;0.52;;;;;;;21.51;57.44;101610.78;4993004;28;96497;-27
2023/06/26 06:20:35;;;;;;;1.80;0.73;;;;;;;21.54;57.10;101615.13;5002938;28;99684;-26
2023/06/26 06:23:00;;;;;;;2.67;0.77;;;;;;;21.61;57.00;101619.88;5011776;28;101167;-27
2023/06/26 06:25:25;;;;;;;1.27;0.60;;;;;;;21.56;56.69;101622.22;5013001;28;97859;-27
2023/06/26 06:27:51;;;;;;;2.92;0.93;;;;;;;21.46;56.69;101637.06;4998681;28;96617;-26
2023/06/26 06:30:16;;;;;;;1.48;0.73;;;;;;;21.36;57.13;101640.66;4993102;28;96535;-28
2023/06/26 06:32:41;;;;;;;3.20;0.50;;;;;;;21.52;57.20;101642.81;5005921;28;97848;-26
2023/06/26 06:35:09;;;;;;;2.60;0.65;;;;;;;21.63;56.32;101644.56;5012289;28;97842;-26
2023/06/26 06:37:36;;;;;;;1.13;0.70;;;;;;;21.79;56.05;101655.00;5011848;28;96738;-26
2023/06/26 06:40:03;;;;;;;1.98;0.63;;;;;;;21.91;55.82;101652.94;4991527;28;96954;-29
2023/06/26 06:42:28;;;;;;;4.35;0.73;;;;;;;22.10;55.23;101654.78;4992421;28;98018;-26
2023/06/26 06:44:54;;;;;;;3.63;0.80;;;;;;;21.99;54.66;101659.44;4993179;28;97459;-27
2023/06/26 06:47:19;;;;;;;3.20;0.55;;;;;;;21.81;54.94;101659.34;5011350;28;96596;-27
2023/06/26 06:49:44;;;;;;;3.28;1.33;;;;;;;21.77;55.37;101673.59;5012977;28;96834;-27
2023/06/26 06:52:10;;;;;;;0.93;0.63;;;;;;;21.77;55.06;101655.16;5012460;28;105737;-26
2023/06/26 06:54:54;;;;;;;3.10;0.68;;;;;;;22.02;55.99;101675.72;5003745;28;98879;-27
2023/06/26 06:57:20;;;;;;;2.03;0.73;;;;;;;22.12;55.03;101680.31;4991396;28;97856;-26
2023/06/26 06:59:47;;;;;;;1.27;0.68;;;;;;;22.14;54.94;101679.16;4991745;28;96897;-27
2023/06/26 07:02:13;;;;;;;1.95;0.60;;;;;;;22.16;53.98;101673.50;4992262;28;99376;-26
2023/06/26 07:04:38;;;;;;;1.00;0.40;;;;;;;22.24;53.74;101677.28;4990988;28;100723;-27
2023/06/26 07:07:04;;;;;;;1.48;0.63;;;;;;;22.35;54.09;101680.88;4997127;28;96868;-26
2023/06/26 07:09:29;;;;;;;1.70;0.65;;;;;;;22.40;53.30;101689.56;5005858;28;96833;-27
2023/06/26 07:11:55;;;;;;;4.35;0.80;;;;;;;22.27;53.29;101690.78;4992471;28;97443;-26
2023/06/26 07:14:20;;;;;;;1.38;0.60;;;;;;;22.25;54.04;101683.66;4991646;28;107364;-27
2023/06/26 07:16:45;;;;;;;1.92;0.80;;;;;;;22.30;54.27;101692.38;4991278;28;96622;-27
2023/06/26 07:19:10;;;;;;;2.22;0.80;;;;;;;22.42;53.58;101691.16;4992235;28;101097;-28
2023/06/26 07:21:36;;;;;;;1.20;0.57;;;;;;;22.57;53.63;101691.53;4993032;28;98624;-27
2023/06/26 07:24:01;;;;;;;1.27;0.65;;;;;;;22.66;52.41;101706.31;4992637;28;97374;-27
2023/06/26 07:26:27;;;;;;;2.33;0.60;;;;;;;22.72;52.77;101702.94;4992453;28;96582;-26
2023/06/26 07:28:52;;;;;;;2.20;0.43;;;;;;;22.82;52.81;101709.28;4992333;28;96814;-27
2023/06/26 07:31:18;;;;;;;5.45;0.93;;;;;;;22.88;52.66;101702.25;5010165;28;99418;-27
2023/06/26 07:33:43;;;;;;;1.15;0.65;;;;;;;22.95;52.40;101714.44;5011904;28;97860;-27
2023/06/26 07:36:08;;;;;;;3.65;0.80;;;;;;;23.02;53.01;101721.13;5010864;28;97273;-27
2023/06/26 07:38:34;;;;;;;1.42;0.60;;;;;;;23.20;53.03;101717.53;5012447;28;96773;-27
2023/06/26 07:40:59;;;;;;;4.22;0.80;;;;;;;23.24;51.94;101713.41;4995871;28;97839;-32
2023/06/26 07:43:24;;;;;;;5.28;1.00;;;;;;;23.11;51.83;101709.13;4991061;28;97749;-29
2023/06/26 07:45:51;;;;;;;1.42;0.90;;;;;;;23.17;51.74;101723.34;4990272;28;97057;-29
2023/06/26 07:48:16;;;;;;;1.83;0.80;;;;;;;23.16;51.09;101718.88;4990465;28;97084;-27
2023/06/26 07:50:42;;;;;;;4.18;0.70;;;;;;;23.21;51.49;101728.41;4989806;28;98067;-27
2023/06/26 07:53:07;;;;;;;1.70;0.70;;;;;;;23.23;51.26;101733.81;4989570;28;98627;-29
2023/06/26 07:55:33;;;;;;;1.77;0.90;;;;;;;23.26;51.24;101730.72;4989185;28;97059;-30
2023/06/26 07:57:58;;;;;;;5.00;0.63;;;;;;;23.35;51.06;101737.22;4990801;28;97235;-26
2023/06/26 08:00:24;;;;;;;2.00;0.80;;;;;;;23.42;51.62;101733.66;4991840;28;97963;-28
2023/06/26 08:02:49;;;;;;;7.63;1.27;;;;;;;23.46;51.47;101728.72;4991800;28;97821;-27
2023/06/26 08:05:14;;;;;;;4.40;0.93;;;;;;;23.51;51.47;101745.69;4992397;28;96606;-27
2023/06/26 08:07:40;;;;;;;1.60;0.70;;;;;;;23.56;50.93;101750.75;4995141;28;96819;-27
2023/06/26 08:10:05;;;;;;;1.95;0.65;;;;;;;23.57;50.83;101742.28;4995120;28;99687;-26
2023/06/26 08:12:31;;;;;;;1.63;0.50;;;;;;;23.67;50.92;101736.69;4995384;28;98616;-28
2023/06/26 08:14:56;;;;;;;1.92;0.77;;;;;;;23.84;50.81;101741.38;4995067;28;96581;-27
2023/06/26 08:17:22;;;;;;;1.92;0.75;;;;;;;23.84;50.09;101751.56;4995622;28;96740;-27
2023/06/26 08:19:47;;;;;;;1.75;0.88;;;;;;;23.85;50.55;101756.06;4994780;28;97992;-26
2023/06/26 08:22:13;;;;;;;5.55;1.30;;;;;;;23.99;50.09;101760.16;4994695;28;99114;-27
2023/06/26 08:24:38;;;;;;;2.20;0.73;;;;;;;24.14;49.93;101759.41;4995126;28;96656;-26
2023/06/26 08:27:03;;;;;;;3.42;0.95;;;;;;;23.95;50.19;101763.28;4994970;28;96851;-26
2023/06/26 08:29:29;;;;;;;1.13;0.73;;;;;;;23.94;49.93;101755.13;4994873;28;99355;-27
2023/06/26 08:31:54;;;;;;;0.60;0.60;;;;;;;24.10;49.32;101766.31;4995021;28;97380;-27
2023/06/26 08:34:20;;;;;;;3.38;1.10;;;;;;;24.24;48.91;101761.22;4994414;28;96700;-26
2023/06/26 08:36:45;;;;;;;5.60;1.10;;;;;;;24.29;49.14;101756.94;4995210;28;96780;-28
2023/06/26 08:39:10;;;;;;;2.13;0.80;;;;;;;24.33;48.54;101752.81;4994892;28;97462;-26
2023/06/26 08:41:36;;;;;;;2.42;0.82;;;;;;;24.58;48.72;101764.09;4994451;28;99335;-26
2023/06/26 08:44:04;;;;;;;2.40;0.88;;;;;;;24.62;48.51;101776.56;4994289;28;96677;-27
2023/06/26 08:46:30;;;;;;;2.50;0.75;;;;;;;24.71;48.17;101760.88;4993418;28;96906;-27
2023/06/26 08:49:00;;;;;;;2.28;0.80;;;;;;;24.74;47.68;101779.91;4993203;28;101181;-27
2023/06/26 08:51:28;;;;;;;3.70;0.77;;;;;;;24.66;48.36;101782.66;4993135;28;101404;-26
2023/06/26 08:53:59;;;;;;;1.95;0.68;;;;;;;24.43;47.93;101782.28;4994490;28;96666;-26
2023/06/26 08:56:29;;;;;;;2.50;0.77;;;;;;;24.36;48.43;101777.44;4994954;28;96656;-26
2023/06/26 08:58:55;;;;;;;3.47;0.93;;;;;;;24.33;48.22;101779.63;4992955;28;102388;-26
2023/06/26 09:01:21;;;;;;;2.10;0.80;;;;;;;24.33;48.52;101785.16;4994759;28;99117;-27
2023/06/26 09:03:46;;;;;;;0.90;0.52;;;;;;;24.26;48.13;101786.84;4992869;28;96794;-27
2023/06/26 09:06:12;;;;;;;1.27;0.65;;;;;;;24.46;48.42;101787.53;4994770;28;96792;-26
2023/06/26 09:08:37;;;;;;;2.55;0.88;;;;;;;24.48;48.09;101799.31;4993920;28;97770;-26
2023/06/26 09:11:03;;;;;;;3.72;0.85;;;;;;;24.36;48.38;101793.19;4994017;28;99164;-26
2023/06/26 09:13:31;;;;;;;2.25;0.70;;;;;;;24.32;48.32;101791.75;4994441;28;96659;-27
2023/06/26 09:15:57;;;;;;;1.92;0.82;;;;;;;24.51;48.13;101782.41;4994394;28;96801;-26
2023/06/26 09:18:23;;;;;;;4.20;0.85;;;;;;;24.84;47.45;101800.09;4993217;28;97986;-27
2023/06/26 09:20:48;;;;;;;3.95;0.90;;;;;;;25.16;47.19;101809.59;4993935;28;99231;-27
2023/06/26 09:23:14;;;;;;;2.70;0.85;;;;;;;25.19;46.56;101806.50;4994305;28;96561;-27
2023/06/26 09:25:40;;;;;;;2.92;0.73;;;;;;;24.92;46.50;101813.97;4994666;28;96862;-26
2023/06/26 09:28:06;;;;;;;2.97;0.75;;;;;;;24.56;47.31;101816.88;4994069;28;97404;-27
2023/06/26 09:30:32;;;;;;;0.90;0.63;;;;;;;24.64;46.98;101824.38;4992505;28;101175;-28
2023/06/26 09:33:16;;;;;;;2.53;0.80;;;;;;;24.54;46.87;101827.25;4992031;28;97356;-27
2023/06/26 09:35:43;;;;;;;1.75;0.80;;;;;;;24.75;46.75;101824.09;4993246;28;96665;-27
2023/06/26 09:38:08;;;;;;;4.03;0.70;;;;;;;24.71;46.62;101821.81;4992426;28;100879;-26
2023/06/26 09:40:35;;;;;;;2.17;0.80;;;;;;;24.60;46.96;101820.22;4993858;28;97825;-27
2023/06/26 09:43:07;;;;;;;3.53;0.90;;;;;;;24.33;46.84;101829.47;4993905;28;96641;-26
2023/06/26 09:45:36;;;;;;;1.23;0.68;;;;;;;24.40;46.61;101832.47;4992403;28;96880;-27
2023/06/26 09:48:02;;;;;;;4.95;1.13;;;;;;;24.06;46.99;101841.53;4992148;28;101236;-26
2023/06/26 09:50:29;;;;;;;3.05;0.82;;;;;;;23.88;47.81;101831.34;4992670;28;100700;-26
2023/06/26 09:52:55;;;;;;;2.83;0.95;;;;;;;23.88;47.30;101844.28;4992164;28;96661;-27
2023/06/26 09:55:23;;;;;;;4.45;0.60;;;;;;;23.69;47.67;101842.50;4992279;28;96872;-27
2023/06/26 09:57:54;;;;;;;1.15;0.60;;;;;;;23.84;47.56;101849.28;4991558;28;101294;-27
2023/06/26 10:00:20;;;;;;;4.72;1.10;;;;;;;23.89;48.00;101858.00;4992089;28;100801;-26
2023/06/26 10:02:45;;;;;;;3.20;1.15;;;;;;;24.23;47.84;101861.94;4993555;28;96635;-27
2023/06/26 10:05:10;;;;;;;5.95;1.27;;;;;;;24.64;46.84;101845.69;4993852;28;96817;-26
2023/06/26 10:07:37;;;;;;;2.60;1.10;;;;;;;24.97;46.10;101852.31;4993463;28;97473;-27
2023/06/26 10:10:05;;;;;;;3.83;1.13;;;;;;;24.90;46.12;101846.53;4993321;28;97308;-27
2023/06/26 10:12:31;;;;;;;2.22;1.00;;;;;;;24.86;46.39;101856.25;4991887;28;98112;-27
2023/06/26 10:14:57;;;;;;;4.57;1.00;;;;;;;24.61;46.50;101857.09;4992260;28;96888;-27
2023/06/26 10:17:27;;;;;;;3.28;1.02;;;;;;;24.36;46.38;101871.59;4991862;28;100932;-27
2023/06/26 10:19:56;;;;;;;1.63;0.65;;;;;;;24.20;46.96;101871.44;4993172;28;97844;-27
2023/06/26 10:22:27;;;;;;;1.90;0.85;;;;;;;24.29;46.74;101864.09;4991512;28;96979;-27
2023/06/26 10:24:58;;;;;;;3.72;0.80;;;;;;;24.54;46.54;101866.03;4991880;28;96787;-27
2023/06/26 10:27:27;;;;;;;1.30;0.88;;;;;;;24.87;46.48;101874.59;4991753;28;101302;-27
2023/06/26 10:29:55;;;;;;;1.20;0.70;;;;;;;25.17;45.89;101887.13;4990528;28;100968;-28
2023/06/26 10:32:24;;;;;;;4.22;0.90;;;;;;;25.22;44.69;101878.31;4991652;28;96541;-27
2023/06/26 10:34:51;;;;;;;1.65;0.75;;;;;;;25.36;44.46;101882.34;4990832;28;96840;-29
2023/06/26 10:37:16;;;;;;;2.38;0.85;;;;;;;25.50;44.71;101883.63;4991347;28;101451;-27
2023/06/26 10:39:52;;;;;;;1.27;0.68;;;;;;;25.74;44.80;101893.94;4993310;28;98370;-26
2023/06/26 10:42:18;;;;;;;1.33;0.80;;;;;;;25.65;44.64;101887.50;4992825;28;96642;-27
2023/06/26 10:44:47;;;;;;;0.40;0.30;;;;;;;25.35;43.72;101892.56;4992968;28;96794;-26
2023/06/26 10:47:32;;;;;;;2.38;0.63;;;;;;;25.01;43.80;101898.94;4990854;28;101339;-27
2023/06/26 10:50:28;;;;;;;2.25;0.60;;;;;;;25.25;43.04;101893.75;4992155;28;97313;-27
2023/06/26 10:53:34;;;;;;;1.58;0.57;;;;;;;25.41;41.96;101903.00;4966307;28;96851;-27
2023/06/26 10:56:03;;;;;;;1.02;0.50;;;;;;;25.20;42.88;101875.69;4992795;28;96657;-27
2023/06/26 10:58:39;;;;;;;2.22;0.70;;;;;;;25.09;42.00;101908.34;4992333;28;99441;-27
2023/06/26 11:01:17;;;;;;;2.38;0.50;;;;;;;25.04;43.22;101908.84;4992349;28;99698;-27
2023/06/26 11:03:52;;;;;;;1.73;0.55;;;;;;;25.29;43.13;101922.88;4991326;28;96849;-26
2023/06/26 11:06:20;;;;;;;4.13;0.98;;;;;;;25.47;42.60;101920.03;4993021;28;96705;-26
2023/06/26 11:08:53;;;;;;;1.75;0.60;;;;;;;25.71;42.36;101914.56;4992392;28;97944;-27
2023/06/26 11:11:20;;;;;;;1.55;0.50;;;;;;;25.84;42.63;101925.22;4992645;28;97318;-27
2023/06/26 11:13:47;;;;;;;1.85;0.40;;;;;;;25.45;41.97;101922.09;4990445;28;96986;-27
2023/06/26 11:16:14;;;;;;;1.52;0.50;;;;;;;25.36;42.25;101913.75;4991171;28;96883;-27
2023/06/26 11:18:40;;;;;;;1.10;0.60;;;;;;;25.31;42.35;101924.44;4991049;28;100906;-27
2023/06/26 11:21:11;;;;;;;0.63;0.40;;;;;;;25.49;42.16;101924.38;4990923;28;98947;-27
2023/06/26 11:23:37;;;;;;;2.97;0.70;;;;;;;25.62;42.03;101940.53;4991056;28;96652;-27